createdAt,value
2023-08-11T00:02:00.213Z,55.30
2023-08-11T00:04:27.052Z,55.40
2023-08-11T00:06:54.378Z,55.50
2023-08-11T00:09:21.211Z,55.60
2023-08-11T00:11:48.231Z,55.60
2023-08-11T00:14:15.110Z,55.70
2023-08-11T00:16:41.946Z,55.70
2023-08-11T00:19:08.994Z,55.70
2023-08-11T00:21:35.857Z,55.70
2023-08-11T00:24:02.706Z,55.80
2023-08-11T00:26:31.646Z,55.80
2023-08-11T00:28:58.551Z,55.90
2023-08-11T00:31:25.439Z,55.90
2023-08-11T00:33:53.017Z,56.10
2023-08-11T00:36:20.722Z,56.10
2023-08-11T00:38:49.784Z,56.00
2023-08-11T00:41:17.630Z,56.20
2023-08-11T00:43:45.012Z,56.20
2023-08-11T00:46:13.869Z,56.40
2023-08-11T00:48:43.003Z,56.60
2023-08-11T00:51:14.443Z,56.70
2023-08-11T00:53:42.974Z,56.90
2023-08-11T00:56:10.114Z,56.80
2023-08-11T00:58:38.732Z,56.60
2023-08-11T01:01:05.906Z,56.70
2023-08-11T01:03:33.226Z,56.60
2023-08-11T01:06:14.857Z,56.60
2023-08-11T01:09:01.377Z,56.60
2023-08-11T01:11:32.192Z,56.60
2023-08-11T01:14:10.639Z,56.50
2023-08-11T01:16:38.332Z,56.60
2023-08-11T01:19:07.927Z,56.60
2023-08-11T01:21:37.365Z,57.10
2023-08-11T01:24:05.067Z,56.70
2023-08-11T01:26:32.651Z,56.80
2023-08-11T01:28:59.459Z,56.90
2023-08-11T01:31:26.804Z,56.90
2023-08-11T01:33:53.845Z,56.90
2023-08-11T01:36:20.627Z,56.90
2023-08-11T01:38:47.974Z,56.90
2023-08-11T01:41:15.908Z,57.00
2023-08-11T01:43:45.259Z,57.10
2023-08-11T01:46:12.508Z,57.20
2023-08-11T01:48:40.617Z,57.20
2023-08-11T01:51:08.383Z,57.40
2023-08-11T01:53:35.221Z,57.50
2023-08-11T01:56:03.107Z,57.70
2023-08-11T01:58:30.208Z,57.70
2023-08-11T02:00:57.773Z,57.90
2023-08-11T02:03:25.743Z,57.80
2023-08-11T02:05:52.704Z,57.90
2023-08-11T02:08:19.874Z,57.90
2023-08-11T02:10:46.807Z,57.90
2023-08-11T02:13:13.855Z,57.90
2023-08-11T02:15:41.473Z,57.70
2023-08-11T02:18:08.710Z,57.50
2023-08-11T02:20:35.902Z,57.40
2023-08-11T02:23:03.154Z,57.50
2023-08-11T02:25:29.978Z,57.50
2023-08-11T02:27:56.785Z,57.40
2023-08-11T02:30:23.764Z,57.30
2023-08-11T02:32:51.589Z,57.40
2023-08-11T02:35:18.909Z,57.40
2023-08-11T02:37:46.340Z,57.40
2023-08-11T02:40:13.244Z,57.50
2023-08-11T02:42:44.597Z,57.40
2023-08-11T02:45:12.426Z,57.50
2023-08-11T02:47:40.840Z,57.60
2023-08-11T02:50:08.266Z,57.60
2023-08-11T02:52:36.161Z,57.40
2023-08-11T02:55:04.710Z,57.40
2023-08-11T02:57:32.507Z,57.70
2023-08-11T02:59:59.548Z,57.70
2023-08-11T03:02:26.541Z,57.80
2023-08-11T03:04:53.881Z,57.80
2023-08-11T03:07:20.807Z,57.80
2023-08-11T03:09:47.629Z,57.90
2023-08-11T03:12:14.577Z,57.90
2023-08-11T03:14:43.069Z,57.90
2023-08-11T03:17:11.306Z,57.90
2023-08-11T03:19:39.007Z,58.00
2023-08-11T03:22:06.339Z,57.90
2023-08-11T03:24:33.680Z,57.90
2023-08-11T03:27:00.558Z,57.90
2023-08-11T03:29:27.748Z,58.10
2023-08-11T03:31:56.215Z,58.10
2023-08-11T03:34:23.369Z,58.30
2023-08-11T03:36:50.155Z,58.40
2023-08-11T03:39:17.488Z,58.40
2023-08-11T03:41:44.252Z,58.20
2023-08-11T03:44:11.471Z,58.20
2023-08-11T03:46:38.669Z,58.20
2023-08-11T03:49:08.078Z,58.00
2023-08-11T03:51:35.796Z,58.10
2023-08-11T03:54:03.627Z,58.20
2023-08-11T03:56:33.684Z,58.10
2023-08-11T03:59:00.563Z,58.30
2023-08-11T04:01:27.415Z,58.50
2023-08-11T04:03:54.258Z,58.50
2023-08-11T04:06:23.140Z,58.60
2023-08-11T04:08:49.922Z,58.50
2023-08-11T04:11:17.116Z,58.40
2023-08-11T04:13:45.016Z,58.30
2023-08-11T04:16:12.789Z,58.40
2023-08-11T04:18:39.588Z,58.50
2023-08-11T04:21:06.919Z,58.50
2023-08-11T04:23:34.038Z,58.50
2023-08-11T04:26:00.831Z,58.50
2023-08-11T04:28:27.958Z,58.50
2023-08-11T04:30:56.549Z,58.50
2023-08-11T04:33:23.650Z,58.50
2023-08-11T04:35:51.098Z,58.40
2023-08-11T04:38:18.778Z,58.30
2023-08-11T04:40:45.742Z,58.20
2023-08-11T04:43:13.065Z,58.20
2023-08-11T04:45:42.699Z,58.20
2023-08-11T04:48:11.391Z,59.10
2023-08-11T04:50:42.103Z,58.00
2023-08-11T04:53:09.595Z,57.90
2023-08-11T04:55:40.843Z,57.90
2023-08-11T04:58:07.883Z,57.90
2023-08-11T05:00:35.301Z,57.90
2023-08-11T05:03:02.282Z,57.90
2023-08-11T05:05:29.206Z,57.90
2023-08-11T05:07:56.044Z,57.90
2023-08-11T05:10:22.797Z,57.90
2023-08-11T05:12:50.506Z,57.80
2023-08-11T05:15:17.397Z,57.60
2023-08-11T05:17:44.275Z,57.60
2023-08-11T05:20:11.567Z,57.60
2023-08-11T05:22:38.561Z,57.60
2023-08-11T05:25:06.017Z,57.60
2023-08-11T05:27:32.998Z,57.60
2023-08-11T05:29:59.928Z,57.50
2023-08-11T05:32:27.374Z,57.60
2023-08-11T05:34:56.599Z,57.60
2023-08-11T05:37:25.821Z,57.50
2023-08-11T05:39:53.540Z,57.50
2023-08-11T05:42:20.865Z,57.50
2023-08-11T05:44:48.394Z,57.30
2023-08-11T05:47:15.210Z,57.40
2023-08-11T05:49:42.032Z,57.30
2023-08-11T05:52:08.854Z,58.40
2023-08-11T05:54:35.728Z,57.40
2023-08-11T05:57:02.608Z,57.30
2023-08-11T05:59:29.372Z,57.20
2023-08-11T06:01:56.273Z,57.30
2023-08-11T06:04:23.055Z,57.20
2023-08-11T06:06:49.842Z,57.20
2023-08-11T06:09:16.681Z,57.00
2023-08-11T06:11:43.447Z,57.00
2023-08-11T06:14:10.288Z,57.00
2023-08-11T06:16:37.049Z,56.90
2023-08-11T06:19:04.077Z,57.00
2023-08-11T06:21:31.056Z,56.90
2023-08-11T06:23:57.963Z,56.90
2023-08-11T06:26:24.804Z,56.80
2023-08-11T06:28:51.653Z,56.70
2023-08-11T06:31:21.510Z,56.70
2023-08-11T06:33:48.828Z,56.60
2023-08-11T06:36:15.787Z,56.50
2023-08-11T06:38:43.807Z,56.50
2023-08-11T06:41:10.704Z,56.30
2023-08-11T06:43:37.658Z,56.30
2023-08-11T06:46:04.534Z,56.30
2023-08-11T06:48:31.606Z,56.20
2023-08-11T06:50:58.452Z,56.20
2023-08-11T06:53:25.775Z,56.10
2023-08-11T06:55:53.278Z,56.10
2023-08-11T06:58:20.878Z,56.00
2023-08-11T07:00:48.921Z,56.00
2023-08-11T07:03:15.865Z,55.90
2023-08-11T07:05:42.677Z,55.80
2023-08-11T07:08:09.716Z,55.80
2023-08-11T07:10:37.295Z,55.60
2023-08-11T07:13:04.280Z,55.40
2023-08-11T07:15:31.085Z,55.10
2023-08-11T07:17:57.989Z,55.00
2023-08-11T07:20:24.881Z,54.90
2023-08-11T07:22:51.830Z,54.80
2023-08-11T07:25:18.652Z,54.50
2023-08-11T07:27:45.470Z,54.50
2023-08-11T07:30:12.599Z,54.00
2023-08-11T07:32:39.577Z,54.30
2023-08-11T07:35:06.926Z,52.60
2023-08-11T07:37:33.768Z,51.90
2023-08-11T07:40:00.804Z,51.20
2023-08-11T07:42:27.683Z,50.50
2023-08-11T07:44:54.474Z,49.70
2023-08-11T07:47:21.936Z,48.80
2023-08-11T07:49:48.807Z,48.40
2023-08-11T07:52:15.707Z,47.50
2023-08-11T07:54:42.737Z,46.50
2023-08-11T07:57:10.278Z,45.80
2023-08-11T07:59:37.413Z,45.30
2023-08-11T08:02:05.266Z,44.80
2023-08-11T08:04:32.286Z,44.30
2023-08-11T08:06:59.060Z,43.90
2023-08-11T08:09:26.445Z,43.60
2023-08-11T08:11:53.276Z,43.10
2023-08-11T08:14:20.265Z,42.70
2023-08-11T08:16:47.141Z,42.30
2023-08-11T08:19:15.997Z,41.90
2023-08-11T08:21:43.722Z,41.50
2023-08-11T08:24:10.844Z,41.00
2023-08-11T08:26:37.875Z,40.60
2023-08-11T08:29:05.244Z,40.20
2023-08-11T08:31:32.120Z,39.90
2023-08-11T08:33:59.267Z,39.40
2023-08-11T08:36:26.824Z,39.30
2023-08-11T08:38:54.028Z,38.90
2023-08-11T08:41:25.008Z,38.60
2023-08-11T08:43:54.889Z,38.30
2023-08-11T08:46:27.243Z,38.10
2023-08-11T08:49:03.196Z,37.80
2023-08-11T08:51:31.306Z,37.40
2023-08-11T08:53:58.253Z,37.20
2023-08-11T08:56:26.365Z,36.90
2023-08-11T08:58:53.355Z,36.40
2023-08-11T09:01:20.619Z,36.50
2023-08-11T09:03:47.786Z,36.50
2023-08-11T09:06:15.939Z,36.50
2023-08-11T09:08:42.693Z,36.10
2023-08-11T09:11:09.995Z,36.50
2023-08-11T09:13:39.292Z,35.90
2023-08-11T09:16:06.597Z,36.00
2023-08-11T09:18:34.043Z,36.60
2023-08-11T09:21:03.526Z,37.10
2023-08-11T09:23:30.906Z,37.40
2023-08-11T09:25:57.728Z,37.40
2023-08-11T09:28:24.774Z,37.20
2023-08-11T09:30:51.788Z,37.20
2023-08-11T09:33:19.339Z,37.40
2023-08-11T09:35:46.373Z,37.70
2023-08-11T09:38:13.424Z,37.40
2023-08-11T09:40:42.271Z,37.50
2023-08-11T09:43:11.955Z,37.30
2023-08-11T09:45:39.450Z,37.00
2023-08-11T09:48:06.907Z,37.00
2023-08-11T09:50:36.733Z,36.90
2023-08-11T09:53:06.471Z,36.70
2023-08-11T09:55:35.828Z,36.30
2023-08-11T09:58:04.316Z,36.10
2023-08-11T10:00:32.186Z,35.90
2023-08-11T10:03:11.719Z,35.60
2023-08-11T10:05:43.289Z,35.50
2023-08-11T10:08:20.664Z,34.10
2023-08-11T10:10:47.893Z,35.30
2023-08-11T10:13:23.853Z,35.40
2023-08-11T10:15:53.080Z,37.40
2023-08-11T10:18:21.607Z,36.90
2023-08-11T10:20:51.337Z,36.70
2023-08-11T10:23:21.386Z,36.70
2023-08-11T10:25:49.499Z,36.70
2023-08-11T10:28:17.602Z,36.90
2023-08-11T10:30:44.580Z,37.30
2023-08-11T10:33:11.727Z,37.00
2023-08-11T10:35:38.723Z,36.80
2023-08-11T10:38:05.977Z,36.80
2023-08-11T10:40:39.983Z,36.80
2023-08-11T10:43:07.520Z,36.80
2023-08-11T10:45:36.235Z,36.90
2023-08-11T10:48:10.621Z,37.00
2023-08-11T10:50:39.205Z,37.30
2023-08-11T10:53:22.681Z,37.30
2023-08-11T10:56:03.645Z,37.40
2023-08-11T10:58:33.988Z,37.50
2023-08-11T11:01:01.213Z,38.60
2023-08-11T11:03:28.184Z,37.60
2023-08-11T11:05:55.022Z,37.70
2023-08-11T11:08:21.932Z,37.70
2023-08-11T11:10:50.915Z,37.90
2023-08-11T11:13:18.521Z,37.90
2023-08-11T11:15:45.803Z,37.90
2023-08-11T11:18:12.847Z,38.00
2023-08-11T11:20:39.760Z,38.10
2023-08-11T11:23:07.066Z,38.20
2023-08-11T11:25:34.636Z,38.30
2023-08-11T11:28:01.892Z,38.40
2023-08-11T11:30:28.876Z,38.50
2023-08-11T11:32:55.898Z,38.50
2023-08-11T11:35:24.898Z,38.50
2023-08-11T11:37:52.933Z,38.60
2023-08-11T11:40:19.991Z,38.60
2023-08-11T11:42:48.555Z,38.90
2023-08-11T11:45:17.377Z,38.90
2023-08-11T11:47:47.349Z,39.00
2023-08-11T11:50:14.286Z,39.10
2023-08-11T11:52:47.868Z,39.20
2023-08-11T11:55:14.806Z,39.30
2023-08-11T11:57:41.665Z,39.40
2023-08-11T12:00:17.819Z,39.50
2023-08-11T12:02:45.848Z,39.60
2023-08-11T12:05:14.016Z,39.70
2023-08-11T12:07:41.377Z,39.90
2023-08-11T12:10:08.479Z,39.80
2023-08-11T12:12:35.381Z,40.00
2023-08-11T12:15:04.550Z,40.20
2023-08-11T12:17:35.618Z,40.30
2023-08-11T12:20:09.746Z,40.50
2023-08-11T12:22:36.556Z,40.60
2023-08-11T12:25:04.507Z,40.70
2023-08-11T12:27:31.686Z,40.90
2023-08-11T12:29:58.645Z,42.10
2023-08-11T12:32:25.546Z,41.30
2023-08-11T12:34:52.892Z,41.40
2023-08-11T12:37:19.674Z,41.60
2023-08-11T12:39:46.483Z,41.80
2023-08-11T12:42:13.413Z,41.90
2023-08-11T12:44:40.633Z,42.10
2023-08-11T12:47:07.704Z,42.30
2023-08-11T12:49:34.540Z,42.30
2023-08-11T12:52:01.357Z,42.50
2023-08-11T12:54:28.211Z,42.60
2023-08-11T12:56:55.064Z,42.80
2023-08-11T12:59:21.936Z,43.00
2023-08-11T13:01:48.823Z,43.10
2023-08-11T13:04:15.788Z,43.30
2023-08-11T13:06:42.619Z,43.40
2023-08-11T13:09:09.444Z,43.50
2023-08-11T13:11:36.283Z,43.80
2023-08-11T13:14:03.677Z,43.70
2023-08-11T13:16:30.794Z,43.70
2023-08-11T13:18:57.708Z,43.90
2023-08-11T13:21:24.581Z,44.20
2023-08-11T13:23:51.514Z,44.50
2023-08-11T13:26:18.435Z,44.60
2023-08-11T13:28:45.299Z,44.70
2023-08-11T13:31:12.335Z,44.90
2023-08-11T13:33:39.202Z,44.90
2023-08-11T13:36:06.328Z,45.20
2023-08-11T13:38:33.259Z,45.20
2023-08-11T13:41:01.933Z,45.40
2023-08-11T13:43:28.849Z,45.50
2023-08-11T13:45:55.898Z,45.50
2023-08-11T13:48:25.001Z,45.60
2023-08-11T13:50:52.871Z,45.80
2023-08-11T13:53:19.879Z,45.80
2023-08-11T13:55:47.174Z,45.90
2023-08-11T13:58:13.960Z,46.10
2023-08-11T14:00:41.247Z,46.00
2023-08-11T14:03:08.165Z,46.30
2023-08-11T14:05:35.907Z,46.30
2023-08-11T14:08:02.742Z,46.40
2023-08-11T14:10:29.549Z,46.50
2023-08-11T14:12:56.319Z,46.70
2023-08-11T14:15:23.140Z,46.80
2023-08-11T14:17:49.959Z,46.90
2023-08-11T14:20:16.753Z,47.00
2023-08-11T14:22:43.549Z,47.10
2023-08-11T14:25:10.361Z,47.10
2023-08-11T14:27:37.184Z,47.30
2023-08-11T14:30:04.403Z,47.40
2023-08-11T14:32:31.566Z,47.50
2023-08-11T14:34:58.648Z,47.60
2023-08-11T14:37:25.542Z,47.80
2023-08-11T14:39:52.655Z,47.80
2023-08-11T14:42:19.607Z,47.90
2023-08-11T14:44:46.373Z,48.00
2023-08-11T14:47:16.068Z,48.10
2023-08-11T14:49:45.978Z,48.20
2023-08-11T14:52:14.630Z,48.30
2023-08-11T14:54:42.552Z,48.40
2023-08-11T14:57:10.989Z,48.80
2023-08-11T14:59:38.805Z,48.90
2023-08-11T15:02:05.775Z,49.20
2023-08-11T15:04:32.528Z,49.10
2023-08-11T15:06:59.298Z,50.50
2023-08-11T15:09:26.075Z,49.60
2023-08-11T15:11:52.900Z,49.80
2023-08-11T15:14:19.744Z,50.00
2023-08-11T15:16:46.651Z,50.10
2023-08-11T15:19:13.632Z,50.20
2023-08-11T15:21:40.734Z,50.30
2023-08-11T15:24:08.347Z,50.60
2023-08-11T15:26:35.256Z,50.70
2023-08-11T15:29:02.061Z,50.80
2023-08-11T15:31:29.093Z,51.00
2023-08-11T15:33:55.844Z,51.10
2023-08-11T15:36:22.671Z,51.20
2023-08-11T15:38:51.852Z,51.30
2023-08-11T15:41:19.842Z,51.50
2023-08-11T15:43:46.911Z,51.60
2023-08-11T15:46:13.836Z,51.70
2023-08-11T15:48:40.747Z,51.80
2023-08-11T15:51:07.879Z,51.90
2023-08-11T15:53:34.784Z,52.00
2023-08-11T15:56:02.507Z,52.00
2023-08-11T15:58:29.348Z,52.10
2023-08-11T16:00:56.374Z,52.10
2023-08-11T16:03:23.569Z,52.20
2023-08-11T16:05:50.471Z,52.40
2023-08-11T16:08:17.330Z,52.40
2023-08-11T16:10:45.288Z,52.40
2023-08-11T16:13:12.183Z,52.50
2023-08-11T16:15:39.330Z,52.60
2023-08-11T16:18:10.560Z,52.70
2023-08-11T16:20:38.028Z,52.70
2023-08-11T16:23:05.370Z,52.60
2023-08-11T16:25:32.242Z,52.70
2023-08-11T16:28:00.526Z,52.70
2023-08-11T16:30:27.294Z,52.90
2023-08-11T16:32:57.644Z,52.60
2023-08-11T16:35:24.746Z,52.80
2023-08-11T16:37:51.541Z,52.80
2023-08-11T16:40:18.369Z,53.00
2023-08-11T16:42:45.344Z,53.00
2023-08-11T16:45:12.186Z,53.00
2023-08-11T16:47:39.060Z,53.20
2023-08-11T16:50:06.493Z,53.20
2023-08-11T16:52:33.412Z,53.30
2023-08-11T16:55:00.319Z,53.30
2023-08-11T16:57:30.269Z,53.40
2023-08-11T16:59:57.055Z,53.50
2023-08-11T17:02:23.900Z,53.40
2023-08-11T17:04:51.180Z,53.50
2023-08-11T17:07:18.361Z,53.60
2023-08-11T17:09:45.101Z,53.60
2023-08-11T17:12:12.569Z,54.70
2023-08-11T17:14:39.741Z,53.70
2023-08-11T17:17:06.656Z,53.80
2023-08-11T17:19:34.073Z,54.00
2023-08-11T17:22:01.759Z,53.90
2023-08-11T17:24:28.825Z,54.00
2023-08-11T17:26:55.784Z,54.10
2023-08-11T17:29:22.652Z,54.00
2023-08-11T17:31:49.594Z,54.10
2023-08-11T17:34:16.560Z,54.10
2023-08-11T17:36:43.400Z,54.20
2023-08-11T17:39:11.878Z,54.20
2023-08-11T17:41:39.120Z,54.40
2023-08-11T17:44:06.176Z,54.30
2023-08-11T17:46:33.155Z,54.30
2023-08-11T17:49:00.086Z,54.40
2023-08-11T17:51:26.918Z,54.40
2023-08-11T17:54:08.241Z,54.40
2023-08-11T17:56:37.115Z,54.50
2023-08-11T17:59:04.265Z,54.40
2023-08-11T18:01:31.684Z,54.40
2023-08-11T18:04:02.855Z,54.40
2023-08-11T18:06:34.198Z,54.50
2023-08-11T18:09:01.581Z,54.30
2023-08-11T18:11:29.472Z,54.20
2023-08-11T18:13:57.520Z,54.40
2023-08-11T18:16:24.523Z,54.50
2023-08-11T18:18:51.563Z,54.40
2023-08-11T18:21:20.909Z,54.50
2023-08-11T18:23:48.411Z,54.50
2023-08-11T18:26:17.022Z,54.60
2023-08-11T18:28:43.935Z,54.80
2023-08-11T18:31:10.840Z,54.60
2023-08-11T18:33:37.952Z,54.80
2023-08-11T18:36:05.147Z,54.70
2023-08-11T18:38:32.293Z,55.00
2023-08-11T18:40:59.537Z,54.90
2023-08-11T18:43:26.590Z,54.90
2023-08-11T18:45:53.463Z,55.00
2023-08-11T18:48:20.282Z,55.00
2023-08-11T18:50:47.286Z,55.00
2023-08-11T18:53:14.154Z,55.10
2023-08-11T18:55:40.954Z,55.10
2023-08-11T18:58:08.065Z,55.10
2023-08-11T19:00:34.926Z,55.10
2023-08-11T19:03:01.882Z,55.20
2023-08-11T19:05:29.315Z,55.20
2023-08-11T19:07:56.067Z,55.30
2023-08-11T19:10:29.062Z,55.30
2023-08-11T19:12:56.039Z,55.60
2023-08-11T19:15:23.966Z,55.50
2023-08-11T19:17:50.839Z,55.50
2023-08-11T19:20:17.674Z,56.50
2023-08-11T19:22:44.550Z,55.70
2023-08-11T19:25:12.608Z,55.80
2023-08-11T19:27:39.659Z,55.90
2023-08-11T19:30:07.825Z,55.50
2023-08-11T19:32:36.021Z,55.70
2023-08-11T19:35:03.260Z,55.60
2023-08-11T19:37:30.076Z,55.50
2023-08-11T19:39:56.937Z,55.50
2023-08-11T19:42:23.743Z,55.80
2023-08-11T19:44:50.551Z,54.90
2023-08-11T19:47:17.490Z,57.00
2023-08-11T19:49:44.332Z,56.10
2023-08-11T19:52:12.148Z,56.00
2023-08-11T19:54:39.229Z,55.90
2023-08-11T19:57:06.385Z,55.80
2023-08-11T19:59:33.333Z,56.80
2023-08-11T20:02:00.101Z,55.80
2023-08-11T20:04:26.935Z,55.70
2023-08-11T20:06:53.900Z,55.80
2023-08-11T20:09:23.297Z,55.60
2023-08-11T20:11:51.978Z,55.40
2023-08-11T20:14:22.128Z,55.50
2023-08-11T20:16:50.605Z,55.40
2023-08-11T20:19:18.859Z,55.30
2023-08-11T20:21:46.124Z,55.30
2023-08-11T20:24:13.126Z,55.10
2023-08-11T20:26:40.012Z,55.10
2023-08-11T20:29:06.986Z,55.20
2023-08-11T20:31:34.159Z,55.10
2023-08-11T20:34:01.378Z,55.20
2023-08-11T20:36:28.419Z,55.20
2023-08-11T20:38:55.190Z,55.20
2023-08-11T20:41:22.176Z,55.20
2023-08-11T20:43:49.711Z,55.20
2023-08-11T20:46:16.904Z,55.10
2023-08-11T20:48:43.903Z,55.10
2023-08-11T20:51:11.973Z,55.20
2023-08-11T20:53:39.470Z,55.30
2023-08-11T20:56:06.820Z,55.30
2023-08-11T20:58:33.565Z,55.50
2023-08-11T21:01:00.686Z,55.50
2023-08-11T21:03:27.661Z,55.40
2023-08-11T21:05:55.162Z,55.30
2023-08-11T21:08:22.011Z,55.20
2023-08-11T21:10:49.608Z,55.20
2023-08-11T21:13:16.574Z,55.20
2023-08-11T21:15:43.416Z,55.30
2023-08-11T21:18:11.046Z,55.30
2023-08-11T21:20:38.430Z,55.40
2023-08-11T21:23:06.323Z,55.40
2023-08-11T21:25:33.627Z,55.60
2023-08-11T21:28:00.780Z,55.80
2023-08-11T21:30:27.601Z,56.00
2023-08-11T21:32:54.438Z,56.00
2023-08-11T21:35:21.916Z,56.00
2023-08-11T21:37:49.180Z,56.00
2023-08-11T21:40:16.226Z,56.00
2023-08-11T21:42:43.903Z,56.00
2023-08-11T21:45:11.101Z,55.90
2023-08-11T21:47:37.996Z,55.90
2023-08-11T21:50:05.542Z,55.90
2023-08-11T21:52:32.366Z,55.90
2023-08-11T21:54:59.400Z,55.90
2023-08-11T21:57:26.230Z,55.90
2023-08-11T21:59:53.004Z,56.10
2023-08-11T22:02:19.958Z,56.10
2023-08-11T22:04:46.958Z,56.10
2023-08-11T22:07:14.327Z,56.10
2023-08-11T22:09:42.758Z,56.20
2023-08-11T22:12:11.992Z,56.20
2023-08-11T22:14:39.628Z,56.20
2023-08-11T22:17:06.748Z,56.20
2023-08-11T22:19:36.728Z,56.30
2023-08-11T22:22:06.700Z,56.50
2023-08-11T22:24:41.145Z,56.30
2023-08-11T22:27:10.368Z,56.40
2023-08-11T22:29:37.730Z,56.40
2023-08-11T22:32:04.966Z,56.40
2023-08-11T22:34:31.809Z,56.50
2023-08-11T22:36:58.582Z,56.50
2023-08-11T22:39:25.473Z,56.40
2023-08-11T22:41:52.217Z,56.50
2023-08-11T22:44:18.985Z,56.60
2023-08-11T22:46:45.825Z,56.80
2023-08-11T22:49:12.821Z,57.00
2023-08-11T22:51:39.654Z,57.10
2023-08-11T22:54:06.531Z,57.20
2023-08-11T22:56:33.430Z,57.30
2023-08-11T22:59:00.352Z,57.30
2023-08-11T23:01:27.321Z,57.40
2023-08-11T23:03:54.283Z,57.30
2023-08-11T23:06:21.279Z,57.30
2023-08-11T23:08:48.076Z,57.30
2023-08-11T23:11:14.897Z,57.20
2023-08-11T23:13:41.653Z,57.30
2023-08-11T23:16:08.550Z,57.40
2023-08-11T23:18:35.382Z,57.40
2023-08-11T23:21:02.331Z,57.40
2023-08-11T23:23:29.111Z,57.50
2023-08-11T23:25:56.522Z,57.50
2023-08-11T23:28:25.136Z,57.40
2023-08-11T23:30:52.259Z,57.40
2023-08-11T23:33:19.809Z,57.40
2023-08-11T23:35:46.712Z,57.50
2023-08-11T23:38:13.624Z,57.60
2023-08-11T23:40:40.498Z,57.70
2023-08-11T23:43:07.765Z,57.80
2023-08-11T23:45:35.580Z,57.80
2023-08-11T23:48:03.064Z,57.80
2023-08-11T23:50:29.979Z,57.90
2023-08-11T23:52:56.741Z,57.90
2023-08-11T23:55:25.926Z,57.90
2023-08-11T23:57:53.009Z,57.90
